Rhodanus — PGBC — position and weather

sailwx.info

Track history (hours):
 
Tides and Currents Weather Stations Pressure Air Temp Water Temp Dewpoint Dewpoint Depression Visibility Wind Speed Wind Dir Waves Ship Positions

Rhodanus

Last reported at 2014-Jul-30 16:33 UTC. Time now 2014-Jul-30 17:17 UTC.
Position N 41°24' E 002°37'.

Length 89 m; draft 4.3 m.

Type: Cargo ship. MMSI: 245848000.

Date/timePositionNaut miles runAvg speedWind from/ knotsBaromVisibWave heightAir tempDewpointWater temp
2014-Jul-30 16:33N 41°24' E 002°37'10 9.3
2014-Jul-30 15:31N 41°29' E 002°48'9 8.7
2014-Jul-30 14:29N 41°34' E 002°58'8 9.1
2014-Jul-30 13:33N 41°38' E 003°08'11 9.1
2014-Jul-30 12:17N 41°44' E 003°22'810.9
2014-Jul-30 11:32N 41°48' E 003°31'1010.2
2014-Jul-30 10:32N 41°54' E 003°42'9 9.3
2014-Jul-30 09:33N 41°59' E 003°52'9 8.7
2014-Jul-30 08:33N 42°06' E 003°59'9 8.8
2014-Jul-30 07:33N 42°14' E 004°02'9 9.0
2014-Jul-30 06:33N 42°23' E 004°05'8 8.3
2014-Jul-30 05:33N 42°29' E 004°12'8 7.5
2014-Jul-30 04:33N 42°34' E 004°20'7 7.5
2014-Jul-30 03:33N 42°40' E 004°27'9 8.6
2014-Jul-30 02:30N 42°48' E 004°33'9 8.9
2014-Jul-30 01:30N 42°56' E 004°38'8 8.3
2014-Jul-30 00:30N 43°03' E 004°44'9 8.7
2014-Jul-29 23:30N 43°10' E 004°50'8 8.9
2014-Jul-29 22:34N 43°17' E 004°56'7 6.8
2014-Jul-29 21:33N 43°23' E 004°52'2 2.3
2014-Jul-29 20:34N 43°23' E 004°49'6 0.1
2014-Jul-27 17:14N 43°28' E 004°45'5 7.4
2014-Jul-27 16:33N 43°23' E 004°48'3 3.0
2014-Jul-27 15:34N 43°23' E 004°52'3 2.6
2014-Jul-27 14:32N 43°26' E 004°53'0 0.0
2014-Jul-27 13:32N 43°26' E 004°53'0 0.0
2014-Jul-27 12:32N 43°26' E 004°53'0 0.0
2014-Jul-27 11:32N 43°26' E 004°53'0 0.0
2014-Jul-27 10:32N 43°26' E 004°53'0 0.0
2014-Jul-27 09:32N 43°26' E 004°53'0 0.0
2014-Jul-27 08:26N 43°26' E 004°53'0 0.0
2014-Jul-27 07:32N 43°26' E 004°53'0 0.0
2014-Jul-27 06:32N 43°26' E 004°53'0 0.0
2014-Jul-27 05:32N 43°26' E 004°53'0 0.0
2014-Jul-27 04:29N 43°26' E 004°53'0 0.0
2014-Jul-27 03:32N 43°26' E 004°53'0 0.0
2014-Jul-27 02:32N 43°26' E 004°53'0 0.0
2014-Jul-27 01:32N 43°26' E 004°53'0 0.0
2014-Jul-27 00:32N 43°26' E 004°53'0 0.0
2014-Jul-26 23:29N 43°26' E 004°53'0 0.0
2014-Jul-26 22:32N 43°26' E 004°53'0 0.0
2014-Jul-26 21:29N 43°26' E 004°53'0 0.0
2014-Jul-26 20:32N 43°26' E 004°53'0 0.0
2014-Jul-26 19:32N 43°26' E 004°53'0 0.0
2014-Jul-26 18:32N 43°26' E 004°53'0 0.0
2014-Jul-26 17:33N 43°26' E 004°53'1 1.5
2014-Jul-26 16:33N 43°25' E 004°55'0 0.0
2014-Jul-26 15:32N 43°25' E 004°55'0 0.0
2014-Jul-26 14:33N 43°25' E 004°55'0 0.0
2014-Jul-26 13:33N 43°25' E 004°55'0 0.0
2014-Jul-26 12:32N 43°25' E 004°55'0 0.1
2014-Jul-26 11:34N 43°25' E 004°55'8 7.6
2014-Jul-26 10:33N 43°18' E 004°60'9 8.6
2014-Jul-26 09:31N 43°09' E 005°01'9 9.1
2014-Jul-26 08:32N 43°02' E 004°54'11 9.7
2014-Jul-26 07:25N 42°53' E 004°46'8 8.7
2014-Jul-26 06:33N 42°47' E 004°40'9 9.0
2014-Jul-26 05:33N 42°39' E 004°33'9 8.8
2014-Jul-26 04:30N 42°32' E 004°26'8 8.8
2014-Jul-26 03:33N 42°25' E 004°20'9 8.8
2014-Jul-26 02:33N 42°17' E 004°13'9 8.6
2014-Jul-26 01:32N 42°10' E 004°06'9 8.4
2014-Jul-26 00:26N 42°03' E 003°59'7 8.4
2014-Jul-25 23:32N 41°56' E 003°54'9 8.8
2014-Jul-25 22:33N 41°50' E 003°46'9 8.8
2014-Jul-25 21:32N 41°44' E 003°37'9 8.9
2014-Jul-25 20:33N 41°37' E 003°29'9 8.8
2014-Jul-25 19:30N 41°30' E 003°21'8 8.7
2014-Jul-25 18:33N 41°25' E 003°13'10 9.4
2014-Jul-25 17:33N 41°18' E 003°04'14 9.7
2014-Jul-25 16:04N 41°08' E 002°50'5 9.5
2014-Jul-25 15:33N 41°05' E 002°46'10 9.6
2014-Jul-25 14:29N 40°58' E 002°35'9 9.5
2014-Jul-25 13:33N 40°51' E 002°28'9 9.4
2014-Jul-25 12:33N 40°45' E 002°19'9 9.3
2014-Jul-25 11:33N 40°38' E 002°10'9 9.3
2014-Jul-25 10:33N 40°32' E 002°02'9 9.1
2014-Jul-25 09:33N 40°24' E 001°55'9 9.3
2014-Jul-25 08:33N 40°16' E 001°48'9 9.2
2014-Jul-25 07:33N 40°09' E 001°41'9 9.2
2014-Jul-25 06:33N 40°01' E 001°35'9 9.1
2014-Jul-25 05:33N 39°53' E 001°28'10 9.4
2014-Jul-25 04:31N 39°45' E 001°21'70 9.9
2014-Jul-24 21:24N 38°46' E 000°32'29 9.6
2014-Jul-24 18:24N 38°22' E 000°11'1210.2
2014-Jul-24 17:14N 38°12' E 000°03'710.1
2014-Jul-24 16:33N 38°07' W 000°03'1010.1
2014-Jul-24 15:33N 37°58' W 000°10'12 9.9
2014-Jul-24 14:22N 37°49' W 000°18'340 9.7
2014-Jul-23 03:11N 36°04' W 007°02'6 9.9
2014-Jul-23 02:33N 36°06' W 007°10'10 9.9
2014-Jul-23 01:33N 36°08' W 007°21'1010.1
2014-Jul-23 00:33N 36°11' W 007°34'1010.4
2014-Jul-22 23:33N 36°14' W 007°46'1010.0
2014-Jul-22 22:33N 36°16' W 007°58'1010.2
2014-Jul-22 21:33N 36°19' W 008°10'1010.4
2014-Jul-22 20:33N 36°22' W 008°23'1010.3
2014-Jul-22 19:33N 36°24' W 008°35'1010.2
2014-Jul-22 18:33N 36°27' W 008°47'1010.1
2014-Jul-22 17:33N 36°29' W 008°59'1010.3
2014-Jul-22 16:33N 36°32' W 009°12'1010.3
2014-Jul-22 15:33N 36°38' W 009°22'1110.5
2014-Jul-22 14:32N 36°46' W 009°31'1010.6
2014-Jul-22 13:33N 36°56' W 009°35'1110.4
2014-Jul-22 12:30N 37°06' W 009°38'1110.3
2014-Jul-22 11:28N 37°17' W 009°41'1010.5
2014-Jul-22 10:33N 37°26' W 009°44'1110.5
2014-Jul-22 09:31N 37°37' W 009°47'1010.5
2014-Jul-22 08:33N 37°47' W 009°50'1010.4
2014-Jul-22 07:33N 37°57' W 009°53'1010.2
2014-Jul-22 06:32N 38°07' W 009°56'1310.7
2014-Jul-22 05:22N 38°19' W 009°59'  
Track history (hours):
 
Tides and Currents Weather Stations Pressure Air Temp Water Temp Dewpoint Dewpoint Depression Visibility Wind Speed Wind Dir Waves Ship Positions

Rhodanus

Last reported at 2014-Jul-30 16:33 UTC. Time now 2014-Jul-30 17:17 UTC.
Position N 41°24' E 002°37'.

Length 89 m; draft 4.3 m.

Type: Cargo ship. MMSI: 245848000.

Date/timePositionNaut miles runAvg speedWind from/ knotsBaromVisibWave heightAir tempDewpointWater temp
2014-Jul-30 16:33N 41°24' E 002°37'10 9.3
2014-Jul-30 15:31N 41°29' E 002°48'9 8.7
2014-Jul-30 14:29N 41°34' E 002°58'8 9.1
2014-Jul-30 13:33N 41°38' E 003°08'11 9.1
2014-Jul-30 12:17N 41°44' E 003°22'810.9
2014-Jul-30 11:32N 41°48' E 003°31'1010.2
2014-Jul-30 10:32N 41°54' E 003°42'9 9.3
2014-Jul-30 09:33N 41°59' E 003°52'9 8.7
2014-Jul-30 08:33N 42°06' E 003°59'9 8.8
2014-Jul-30 07:33N 42°14' E 004°02'9 9.0
2014-Jul-30 06:33N 42°23' E 004°05'8 8.3
2014-Jul-30 05:33N 42°29' E 004°12'8 7.5
2014-Jul-30 04:33N 42°34' E 004°20'7 7.5
2014-Jul-30 03:33N 42°40' E 004°27'9 8.6
2014-Jul-30 02:30N 42°48' E 004°33'9 8.9
2014-Jul-30 01:30N 42°56' E 004°38'8 8.3
2014-Jul-30 00:30N 43°03' E 004°44'9 8.7
2014-Jul-29 23:30N 43°10' E 004°50'8 8.9
2014-Jul-29 22:34N 43°17' E 004°56'7 6.8
2014-Jul-29 21:33N 43°23' E 004°52'2 2.3
2014-Jul-29 20:34N 43°23' E 004°49'6 0.1
2014-Jul-27 17:14N 43°28' E 004°45'5 7.4
2014-Jul-27 16:33N 43°23' E 004°48'3 3.0
2014-Jul-27 15:34N 43°23' E 004°52'3 2.6
2014-Jul-27 14:32N 43°26' E 004°53'0 0.0
2014-Jul-27 13:32N 43°26' E 004°53'0 0.0
2014-Jul-27 12:32N 43°26' E 004°53'0 0.0
2014-Jul-27 11:32N 43°26' E 004°53'0 0.0
2014-Jul-27 10:32N 43°26' E 004°53'0 0.0
2014-Jul-27 09:32N 43°26' E 004°53'0 0.0
2014-Jul-27 08:26N 43°26' E 004°53'0 0.0
2014-Jul-27 07:32N 43°26' E 004°53'0 0.0
2014-Jul-27 06:32N 43°26' E 004°53'0 0.0
2014-Jul-27 05:32N 43°26' E 004°53'0 0.0
2014-Jul-27 04:29N 43°26' E 004°53'0 0.0
2014-Jul-27 03:32N 43°26' E 004°53'0 0.0
2014-Jul-27 02:32N 43°26' E 004°53'0 0.0
2014-Jul-27 01:32N 43°26' E 004°53'0 0.0
2014-Jul-27 00:32N 43°26' E 004°53'0 0.0
2014-Jul-26 23:29N 43°26' E 004°53'0 0.0
2014-Jul-26 22:32N 43°26' E 004°53'0 0.0
2014-Jul-26 21:29N 43°26' E 004°53'0 0.0
2014-Jul-26 20:32N 43°26' E 004°53'0 0.0
2014-Jul-26 19:32N 43°26' E 004°53'0 0.0
2014-Jul-26 18:32N 43°26' E 004°53'0 0.0
2014-Jul-26 17:33N 43°26' E 004°53'1 1.5
2014-Jul-26 16:33N 43°25' E 004°55'0 0.0
2014-Jul-26 15:32N 43°25' E 004°55'0 0.0
2014-Jul-26 14:33N 43°25' E 004°55'0 0.0
2014-Jul-26 13:33N 43°25' E 004°55'0 0.0
2014-Jul-26 12:32N 43°25' E 004°55'0 0.1
2014-Jul-26 11:34N 43°25' E 004°55'8 7.6
2014-Jul-26 10:33N 43°18' E 004°60'9 8.6
2014-Jul-26 09:31N 43°09' E 005°01'9 9.1
2014-Jul-26 08:32N 43°02' E 004°54'11 9.7
2014-Jul-26 07:25N 42°53' E 004°46'8 8.7
2014-Jul-26 06:33N 42°47' E 004°40'9 9.0
2014-Jul-26 05:33N 42°39' E 004°33'9 8.8
2014-Jul-26 04:30N 42°32' E 004°26'8 8.8
2014-Jul-26 03:33N 42°25' E 004°20'9 8.8
2014-Jul-26 02:33N 42°17' E 004°13'9 8.6
2014-Jul-26 01:32N 42°10' E 004°06'9 8.4
2014-Jul-26 00:26N 42°03' E 003°59'7 8.4
2014-Jul-25 23:32N 41°56' E 003°54'9 8.8
2014-Jul-25 22:33N 41°50' E 003°46'9 8.8
2014-Jul-25 21:32N 41°44' E 003°37'9 8.9
2014-Jul-25 20:33N 41°37' E 003°29'9 8.8
2014-Jul-25 19:30N 41°30' E 003°21'8 8.7
2014-Jul-25 18:33N 41°25' E 003°13'10 9.4
2014-Jul-25 17:33N 41°18' E 003°04'14 9.7
2014-Jul-25 16:04N 41°08' E 002°50'5 9.5
2014-Jul-25 15:33N 41°05' E 002°46'10 9.6
2014-Jul-25 14:29N 40°58' E 002°35'9 9.5
2014-Jul-25 13:33N 40°51' E 002°28'9 9.4
2014-Jul-25 12:33N 40°45' E 002°19'9 9.3
2014-Jul-25 11:33N 40°38' E 002°10'9 9.3
2014-Jul-25 10:33N 40°32' E 002°02'9 9.1
2014-Jul-25 09:33N 40°24' E 001°55'9 9.3
2014-Jul-25 08:33N 40°16' E 001°48'9 9.2
2014-Jul-25 07:33N 40°09' E 001°41'9 9.2
2014-Jul-25 06:33N 40°01' E 001°35'9 9.1
2014-Jul-25 05:33N 39°53' E 001°28'10 9.4
2014-Jul-25 04:31N 39°45' E 001°21'70 9.9
2014-Jul-24 21:24N 38°46' E 000°32'29 9.6
2014-Jul-24 18:24N 38°22' E 000°11'1210.2
2014-Jul-24 17:14N 38°12' E 000°03'710.1
2014-Jul-24 16:33N 38°07' W 000°03'1010.1
2014-Jul-24 15:33N 37°58' W 000°10'12 9.9
2014-Jul-24 14:22N 37°49' W 000°18'340 9.7
2014-Jul-23 03:11N 36°04' W 007°02'6 9.9
2014-Jul-23 02:33N 36°06' W 007°10'10 9.9
2014-Jul-23 01:33N 36°08' W 007°21'1010.1
2014-Jul-23 00:33N 36°11' W 007°34'1010.4
2014-Jul-22 23:33N 36°14' W 007°46'1010.0
2014-Jul-22 22:33N 36°16' W 007°58'1010.2
2014-Jul-22 21:33N 36°19' W 008°10'1010.4
2014-Jul-22 20:33N 36°22' W 008°23'1010.3
2014-Jul-22 19:33N 36°24' W 008°35'1010.2
2014-Jul-22 18:33N 36°27' W 008°47'1010.1
2014-Jul-22 17:33N 36°29' W 008°59'1010.3
2014-Jul-22 16:33N 36°32' W 009°12'1010.3
2014-Jul-22 15:33N 36°38' W 009°22'1110.5
2014-Jul-22 14:32N 36°46' W 009°31'1010.6
2014-Jul-22 13:33N 36°56' W 009°35'1110.4
2014-Jul-22 12:30N 37°06' W 009°38'1110.3
2014-Jul-22 11:28N 37°17' W 009°41'1010.5
2014-Jul-22 10:33N 37°26' W 009°44'1110.5
2014-Jul-22 09:31N 37°37' W 009°47'1010.5
2014-Jul-22 08:33N 37°47' W 009°50'1010.4
2014-Jul-22 07:33N 37°57' W 009°53'1010.2
2014-Jul-22 06:32N 38°07' W 009°56'1310.7
2014-Jul-22 05:22N 38°19' W 009°59'  

Dump ship's entire track history